sensor_id;sensor_type;location;lat;lon;timestamp;P1;durP1;ratioP1;P2;durP2;ratioP2
20110;SDS011;10216;42.658;23.248;2022-10-16T00:00:31;11.13;;;8.30;;
20110;SDS011;10216;42.658;23.248;2022-10-16T00:02:57;10.60;;;8.83;;
20110;SDS011;10216;42.658;23.248;2022-10-16T00:05:23;10.73;;;8.77;;
20110;SDS011;10216;42.658;23.248;2022-10-16T00:07:48;13.67;;;8.57;;
20110;SDS011;10216;42.658;23.248;2022-10-16T00:10:13;10.63;;;8.40;;
20110;SDS011;10216;42.658;23.248;2022-10-16T00:12:39;11.03;;;8.27;;
20110;SDS011;10216;42.658;23.248;2022-10-16T00:15:04;12.03;;;8.10;;
20110;SDS011;10216;42.658;23.248;2022-10-16T00:17:31;11.13;;;7.90;;
20110;SDS011;10216;42.658;23.248;2022-10-16T00:19:57;9.90;;;8.10;;
20110;SDS011;10216;42.658;23.248;2022-10-16T00:22:22;10.83;;;7.90;;
20110;SDS011;10216;42.658;23.248;2022-10-16T00:24:48;10.77;;;7.77;;
20110;SDS011;10216;42.658;23.248;2022-10-16T00:27:14;11.70;;;7.53;;
20110;SDS011;10216;42.658;23.248;2022-10-16T00:29:39;10.40;;;7.33;;
20110;SDS011;10216;42.658;23.248;2022-10-16T00:32:04;10.50;;;7.90;;
20110;SDS011;10216;42.658;23.248;2022-10-16T00:34:30;10.57;;;7.53;;
20110;SDS011;10216;42.658;23.248;2022-10-16T00:36:55;9.70;;;7.90;;
20110;SDS011;10216;42.658;23.248;2022-10-16T00:39:20;9.77;;;7.83;;
20110;SDS011;10216;42.658;23.248;2022-10-16T00:41:47;10.40;;;7.57;;
20110;SDS011;10216;42.658;23.248;2022-10-16T00:47:09;10.47;;;7.20;;
20110;SDS011;10216;42.658;23.248;2022-10-16T00:49:38;9.40;;;7.47;;
20110;SDS011;10216;42.658;23.248;2022-10-16T00:52:03;10.87;;;7.50;;
20110;SDS011;10216;42.658;23.248;2022-10-16T00:54:30;7.53;;;6.83;;
20110;SDS011;10216;42.658;23.248;2022-10-16T00:56:58;11.03;;;7.87;;
20110;SDS011;10216;42.658;23.248;2022-10-16T00:59:36;8.97;;;7.70;;
20110;SDS011;10216;42.658;23.248;2022-10-16T01:02:05;8.13;;;7.20;;
20110;SDS011;10216;42.658;23.248;2022-10-16T01:04:35;11.97;;;7.53;;
20110;SDS011;10216;42.658;23.248;2022-10-16T01:07:06;10.27;;;7.73;;
20110;SDS011;10216;42.658;23.248;2022-10-16T01:09:55;9.53;;;7.30;;
20110;SDS011;10216;42.658;23.248;2022-10-16T01:17:38;8.63;;;7.27;;
20110;SDS011;10216;42.658;23.248;2022-10-16T01:22:40;8.60;;;7.57;;
20110;SDS011;10216;42.658;23.248;2022-10-16T01:25:16;7.70;;;6.90;;
20110;SDS011;10216;42.658;23.248;2022-10-16T01:27:50;10.10;;;7.30;;
20110;SDS011;10216;42.658;23.248;2022-10-16T01:30:18;13.70;;;7.20;;
20110;SDS011;10216;42.658;23.248;2022-10-16T01:33:01;8.67;;;7.43;;
20110;SDS011;10216;42.658;23.248;2022-10-16T01:35:38;8.47;;;7.27;;
20110;SDS011;10216;42.658;23.248;2022-10-16T01:38:51;9.17;;;6.70;;
20110;SDS011;10216;42.658;23.248;2022-10-16T01:41:21;7.97;;;7.17;;
20110;SDS011;10216;42.658;23.248;2022-10-16T01:43:48;8.40;;;7.50;;
20110;SDS011;10216;42.658;23.248;2022-10-16T01:46:21;8.70;;;7.80;;
20110;SDS011;10216;42.658;23.248;2022-10-16T01:48:48;10.10;;;7.30;;
20110;SDS011;10216;42.658;23.248;2022-10-16T01:51:18;8.93;;;7.73;;
20110;SDS011;10216;42.658;23.248;2022-10-16T01:53:48;9.23;;;7.37;;
20110;SDS011;10216;42.658;23.248;2022-10-16T01:56:19;10.10;;;7.57;;
20110;SDS011;10216;42.658;23.248;2022-10-16T01:58:54;8.93;;;7.63;;
20110;SDS011;10216;42.658;23.248;2022-10-16T02:01:23;8.70;;;7.77;;
20110;SDS011;10216;42.658;23.248;2022-10-16T02:03:53;11.30;;;8.03;;
20110;SDS011;10216;42.658;23.248;2022-10-16T02:06:22;8.93;;;6.90;;
20110;SDS011;10216;42.658;23.248;2022-10-16T02:08:48;8.67;;;7.33;;
20110;SDS011;10216;42.658;23.248;2022-10-16T02:11:13;10.17;;;7.33;;
20110;SDS011;10216;42.658;23.248;2022-10-16T02:13:41;8.83;;;7.13;;
20110;SDS011;10216;42.658;23.248;2022-10-16T02:16:11;12.33;;;8.10;;
20110;SDS011;10216;42.658;23.248;2022-10-16T02:18:38;15.17;;;8.00;;
20110;SDS011;10216;42.658;23.248;2022-10-16T02:21:07;11.20;;;7.40;;
20110;SDS011;10216;42.658;23.248;2022-10-16T02:24:00;10.00;;;8.03;;
20110;SDS011;10216;42.658;23.248;2022-10-16T02:26:42;8.70;;;7.80;;
20110;SDS011;10216;42.658;23.248;2022-10-16T02:29:31;11.80;;;8.20;;
20110;SDS011;10216;42.658;23.248;2022-10-16T02:32:01;9.33;;;7.90;;
20110;SDS011;10216;42.658;23.248;2022-10-16T02:34:30;10.27;;;7.87;;
20110;SDS011;10216;42.658;23.248;2022-10-16T02:36:58;11.20;;;8.37;;
20110;SDS011;10216;42.658;23.248;2022-10-16T02:39:26;8.43;;;7.53;;
20110;SDS011;10216;42.658;23.248;2022-10-16T02:41:53;10.33;;;7.63;;
20110;SDS011;10216;42.658;23.248;2022-10-16T02:44:19;9.37;;;8.43;;
20110;SDS011;10216;42.658;23.248;2022-10-16T02:46:44;10.53;;;8.27;;
20110;SDS011;10216;42.658;23.248;2022-10-16T02:49:09;15.87;;;8.30;;
20110;SDS011;10216;42.658;23.248;2022-10-16T02:51:35;13.00;;;8.50;;
20110;SDS011;10216;42.658;23.248;2022-10-16T02:54:01;11.00;;;8.23;;
20110;SDS011;10216;42.658;23.248;2022-10-16T02:56:27;11.30;;;7.80;;
20110;SDS011;10216;42.658;23.248;2022-10-16T02:58:52;10.57;;;8.13;;
20110;SDS011;10216;42.658;23.248;2022-10-16T03:01:18;10.33;;;8.27;;
20110;SDS011;10216;42.658;23.248;2022-10-16T03:03:45;11.83;;;8.73;;
20110;SDS011;10216;42.658;23.248;2022-10-16T03:06:11;10.63;;;8.67;;
20110;SDS011;10216;42.658;23.248;2022-10-16T03:08:36;13.23;;;9.10;;
20110;SDS011;10216;42.658;23.248;2022-10-16T03:11:01;11.23;;;9.37;;
20110;SDS011;10216;42.658;23.248;2022-10-16T03:13:27;11.67;;;8.93;;
20110;SDS011;10216;42.658;23.248;2022-10-16T03:15:52;11.87;;;9.17;;
20110;SDS011;10216;42.658;23.248;2022-10-16T03:18:17;10.70;;;9.03;;
20110;SDS011;10216;42.658;23.248;2022-10-16T03:20:43;10.27;;;9.03;;
20110;SDS011;10216;42.658;23.248;2022-10-16T03:23:08;12.13;;;8.60;;
20110;SDS011;10216;42.658;23.248;2022-10-16T03:25:34;10.80;;;9.60;;
20110;SDS011;10216;42.658;23.248;2022-10-16T03:28:00;12.20;;;9.77;;
20110;SDS011;10216;42.658;23.248;2022-10-16T03:30:25;11.87;;;9.37;;
20110;SDS011;10216;42.658;23.248;2022-10-16T03:32:50;15.27;;;9.83;;
20110;SDS011;10216;42.658;23.248;2022-10-16T03:35:19;13.73;;;9.17;;
20110;SDS011;10216;42.658;23.248;2022-10-16T03:37:45;12.97;;;9.93;;
20110;SDS011;10216;42.658;23.248;2022-10-16T03:40:10;10.17;;;8.77;;
20110;SDS011;10216;42.658;23.248;2022-10-16T03:42:36;12.70;;;8.93;;
20110;SDS011;10216;42.658;23.248;2022-10-16T03:45:01;14.43;;;9.60;;
20110;SDS011;10216;42.658;23.248;2022-10-16T03:47:26;12.80;;;9.77;;
20110;SDS011;10216;42.658;23.248;2022-10-16T03:49:52;12.03;;;9.63;;
20110;SDS011;10216;42.658;23.248;2022-10-16T03:52:17;13.70;;;9.93;;
20110;SDS011;10216;42.658;23.248;2022-10-16T03:54:42;11.27;;;8.93;;
20110;SDS011;10216;42.658;23.248;2022-10-16T03:57:08;10.47;;;8.90;;
20110;SDS011;10216;42.658;23.248;2022-10-16T03:59:33;14.53;;;9.40;;
20110;SDS011;10216;42.658;23.248;2022-10-16T04:01:59;10.23;;;8.43;;
20110;SDS011;10216;42.658;23.248;2022-10-16T04:04:24;12.53;;;9.50;;
20110;SDS011;10216;42.658;23.248;2022-10-16T04:06:50;12.37;;;9.93;;
20110;SDS011;10216;42.658;23.248;2022-10-16T04:09:16;11.80;;;9.20;;
20110;SDS011;10216;42.658;23.248;2022-10-16T04:11:43;12.57;;;9.70;;
20110;SDS011;10216;42.658;23.248;2022-10-16T04:14:09;10.80;;;9.70;;
20110;SDS011;10216;42.658;23.248;2022-10-16T04:16:37;13.83;;;9.87;;
20110;SDS011;10216;42.658;23.248;2022-10-16T04:19:02;14.30;;;10.33;;
20110;SDS011;10216;42.658;23.248;2022-10-16T04:21:27;10.73;;;8.93;;
20110;SDS011;10216;42.658;23.248;2022-10-16T04:23:53;10.87;;;9.57;;
20110;SDS011;10216;42.658;23.248;2022-10-16T04:26:18;13.43;;;10.37;;
20110;SDS011;10216;42.658;23.248;2022-10-16T04:28:44;11.73;;;9.63;;
20110;SDS011;10216;42.658;23.248;2022-10-16T04:31:09;12.90;;;10.40;;
20110;SDS011;10216;42.658;23.248;2022-10-16T04:33:34;14.50;;;9.67;;
20110;SDS011;10216;42.658;23.248;2022-10-16T04:36:00;14.43;;;10.10;;
20110;SDS011;10216;42.658;23.248;2022-10-16T04:38:27;12.17;;;10.40;;
20110;SDS011;10216;42.658;23.248;2022-10-16T04:40:53;13.43;;;10.50;;
20110;SDS011;10216;42.658;23.248;2022-10-16T04:43:18;11.40;;;9.43;;
20110;SDS011;10216;42.658;23.248;2022-10-16T04:45:44;12.67;;;10.40;;
20110;SDS011;10216;42.658;23.248;2022-10-16T04:48:09;13.93;;;10.03;;
20110;SDS011;10216;42.658;23.248;2022-10-16T04:50:35;11.60;;;9.97;;
20110;SDS011;10216;42.658;23.248;2022-10-16T04:53:00;12.90;;;9.77;;
20110;SDS011;10216;42.658;23.248;2022-10-16T04:55:28;11.63;;;10.20;;
20110;SDS011;10216;42.658;23.248;2022-10-16T04:57:53;14.53;;;11.07;;
20110;SDS011;10216;42.658;23.248;2022-10-16T05:00:18;11.40;;;10.20;;
20110;SDS011;10216;42.658;23.248;2022-10-16T05:02:44;13.33;;;11.07;;
20110;SDS011;10216;42.658;23.248;2022-10-16T05:05:09;15.37;;;12.13;;
20110;SDS011;10216;42.658;23.248;2022-10-16T05:07:35;15.40;;;13.87;;
20110;SDS011;10216;42.658;23.248;2022-10-16T05:10:00;18.80;;;14.00;;
20110;SDS011;10216;42.658;23.248;2022-10-16T05:12:25;16.83;;;13.07;;
20110;SDS011;10216;42.658;23.248;2022-10-16T05:14:51;14.73;;;13.20;;
20110;SDS011;10216;42.658;23.248;2022-10-16T05:17:16;16.73;;;13.63;;
20110;SDS011;10216;42.658;23.248;2022-10-16T05:19:41;17.40;;;13.60;;
20110;SDS011;10216;42.658;23.248;2022-10-16T05:22:09;17.10;;;13.73;;
20110;SDS011;10216;42.658;23.248;2022-10-16T05:24:35;16.10;;;13.47;;
20110;SDS011;10216;42.658;23.248;2022-10-16T05:27:00;15.30;;;13.13;;
20110;SDS011;10216;42.658;23.248;2022-10-16T05:29:25;16.50;;;13.23;;
20110;SDS011;10216;42.658;23.248;2022-10-16T05:31:52;16.67;;;13.60;;
20110;SDS011;10216;42.658;23.248;2022-10-16T05:34:18;15.13;;;13.23;;
20110;SDS011;10216;42.658;23.248;2022-10-16T05:36:43;15.47;;;13.50;;
20110;SDS011;10216;42.658;23.248;2022-10-16T05:39:10;15.83;;;13.43;;
20110;SDS011;10216;42.658;23.248;2022-10-16T05:41:35;19.07;;;13.90;;
20110;SDS011;10216;42.658;23.248;2022-10-16T05:44:03;18.70;;;14.60;;
20110;SDS011;10216;42.658;23.248;2022-10-16T05:46:29;20.20;;;15.57;;
20110;SDS011;10216;42.658;23.248;2022-10-16T05:48:54;19.77;;;16.07;;
20110;SDS011;10216;42.658;23.248;2022-10-16T05:51:20;20.77;;;16.20;;
20110;SDS011;10216;42.658;23.248;2022-10-16T05:53:45;21.13;;;17.13;;
20110;SDS011;10216;42.658;23.248;2022-10-16T05:56:13;23.03;;;18.87;;
20110;SDS011;10216;42.658;23.248;2022-10-16T05:58:38;24.33;;;20.60;;
20110;SDS011;10216;42.658;23.248;2022-10-16T06:01:12;20.63;;;17.40;;
20110;SDS011;10216;42.658;23.248;2022-10-16T06:03:40;24.17;;;16.60;;
20110;SDS011;10216;42.658;23.248;2022-10-16T06:06:16;21.33;;;16.47;;
20110;SDS011;10216;42.658;23.248;2022-10-16T06:08:46;27.23;;;16.63;;
20110;SDS011;10216;42.658;23.248;2022-10-16T06:11:14;22.17;;;17.10;;
20110;SDS011;10216;42.658;23.248;2022-10-16T06:13:44;22.77;;;17.00;;
20110;SDS011;10216;42.658;23.248;2022-10-16T06:16:11;22.50;;;17.67;;
20110;SDS011;10216;42.658;23.248;2022-10-16T06:18:37;24.67;;;17.80;;
20110;SDS011;10216;42.658;23.248;2022-10-16T06:21:14;25.43;;;18.90;;
20110;SDS011;10216;42.658;23.248;2022-10-16T06:23:45;26.80;;;19.27;;
20110;SDS011;10216;42.658;23.248;2022-10-16T06:26:14;25.33;;;18.03;;
20110;SDS011;10216;42.658;23.248;2022-10-16T06:28:41;22.90;;;18.50;;
20110;SDS011;10216;42.658;23.248;2022-10-16T06:31:08;22.10;;;18.53;;
20110;SDS011;10216;42.658;23.248;2022-10-16T06:33:34;21.67;;;18.13;;
20110;SDS011;10216;42.658;23.248;2022-10-16T06:36:01;26.60;;;20.20;;
20110;SDS011;10216;42.658;23.248;2022-10-16T06:38:31;57.10;;;32.80;;
20110;SDS011;10216;42.658;23.248;2022-10-16T06:40:56;36.83;;;24.33;;
20110;SDS011;10216;42.658;23.248;2022-10-16T06:43:22;23.67;;;19.73;;
20110;SDS011;10216;42.658;23.248;2022-10-16T06:45:54;26.37;;;19.00;;
20110;SDS011;10216;42.658;23.248;2022-10-16T06:48:21;24.23;;;20.47;;
20110;SDS011;10216;42.658;23.248;2022-10-16T06:53:27;21.40;;;16.83;;
20110;SDS011;10216;42.658;23.248;2022-10-16T06:55:54;21.47;;;16.23;;
20110;SDS011;10216;42.658;23.248;2022-10-16T06:58:20;18.13;;;15.27;;
20110;SDS011;10216;42.658;23.248;2022-10-16T07:00:46;19.67;;;15.53;;
20110;SDS011;10216;42.658;23.248;2022-10-16T07:03:11;20.80;;;17.30;;
20110;SDS011;10216;42.658;23.248;2022-10-16T07:05:40;16.83;;;14.70;;
20110;SDS011;10216;42.658;23.248;2022-10-16T07:08:07;19.33;;;15.13;;
20110;SDS011;10216;42.658;23.248;2022-10-16T07:10:33;20.03;;;15.03;;
20110;SDS011;10216;42.658;23.248;2022-10-16T07:12:58;17.30;;;13.87;;
20110;SDS011;10216;42.658;23.248;2022-10-16T07:15:24;28.60;;;14.20;;
20110;SDS011;10216;42.658;23.248;2022-10-16T07:17:51;15.97;;;12.80;;
20110;SDS011;10216;42.658;23.248;2022-10-16T07:20:16;14.23;;;11.90;;
20110;SDS011;10216;42.658;23.248;2022-10-16T07:22:41;15.80;;;12.20;;
20110;SDS011;10216;42.658;23.248;2022-10-16T07:25:07;13.87;;;11.60;;
20110;SDS011;10216;42.658;23.248;2022-10-16T07:27:33;16.50;;;10.97;;
20110;SDS011;10216;42.658;23.248;2022-10-16T07:29:59;16.40;;;10.87;;
20110;SDS011;10216;42.658;23.248;2022-10-16T07:32:24;15.33;;;11.33;;
20110;SDS011;10216;42.658;23.248;2022-10-16T07:34:51;13.77;;;10.83;;
20110;SDS011;10216;42.658;23.248;2022-10-16T07:37:16;11.80;;;10.60;;
20110;SDS011;10216;42.658;23.248;2022-10-16T07:39:42;11.87;;;10.40;;
20110;SDS011;10216;42.658;23.248;2022-10-16T07:42:07;10.83;;;9.73;;
20110;SDS011;10216;42.658;23.248;2022-10-16T07:44:33;14.97;;;10.30;;
20110;SDS011;10216;42.658;23.248;2022-10-16T07:46:58;14.53;;;10.10;;
20110;SDS011;10216;42.658;23.248;2022-10-16T07:49:24;13.67;;;8.90;;
20110;SDS011;10216;42.658;23.248;2022-10-16T07:51:49;10.93;;;9.70;;
20110;SDS011;10216;42.658;23.248;2022-10-16T07:54:15;10.57;;;8.50;;
20110;SDS011;10216;42.658;23.248;2022-10-16T07:56:40;9.67;;;8.17;;
20110;SDS011;10216;42.658;23.248;2022-10-16T07:59:05;11.23;;;8.47;;
20110;SDS011;10216;42.658;23.248;2022-10-16T08:01:31;12.87;;;8.03;;
20110;SDS011;10216;42.658;23.248;2022-10-16T08:03:58;12.93;;;9.93;;
20110;SDS011;10216;42.658;23.248;2022-10-16T08:06:24;13.80;;;10.90;;
20110;SDS011;10216;42.658;23.248;2022-10-16T08:08:49;15.53;;;10.90;;
20110;SDS011;10216;42.658;23.248;2022-10-16T08:11:15;17.70;;;12.50;;
20110;SDS011;10216;42.658;23.248;2022-10-16T08:13:40;13.00;;;10.50;;
20110;SDS011;10216;42.658;23.248;2022-10-16T08:16:06;13.37;;;10.70;;
20110;SDS011;10216;42.658;23.248;2022-10-16T08:18:34;12.03;;;10.13;;
20110;SDS011;10216;42.658;23.248;2022-10-16T08:21:03;15.90;;;9.60;;
20110;SDS011;10216;42.658;23.248;2022-10-16T08:23:30;19.27;;;12.67;;
20110;SDS011;10216;42.658;23.248;2022-10-16T08:25:56;13.83;;;10.70;;
20110;SDS011;10216;42.658;23.248;2022-10-16T08:28:26;15.80;;;11.00;;
20110;SDS011;10216;42.658;23.248;2022-10-16T08:30:52;12.33;;;10.60;;
20110;SDS011;10216;42.658;23.248;2022-10-16T08:33:17;13.83;;;11.57;;
20110;SDS011;10216;42.658;23.248;2022-10-16T08:35:42;12.73;;;9.40;;
20110;SDS011;10216;42.658;23.248;2022-10-16T08:38:15;11.00;;;9.70;;
20110;SDS011;10216;42.658;23.248;2022-10-16T08:40:41;11.17;;;9.77;;
20110;SDS011;10216;42.658;23.248;2022-10-16T08:45:49;12.27;;;8.03;;
20110;SDS011;10216;42.658;23.248;2022-10-16T08:48:21;8.47;;;7.60;;
20110;SDS011;10216;42.658;23.248;2022-10-16T08:50:54;9.40;;;8.20;;
20110;SDS011;10216;42.658;23.248;2022-10-16T08:53:24;10.90;;;8.23;;
20110;SDS011;10216;42.658;23.248;2022-10-16T08:55:55;9.93;;;7.37;;
20110;SDS011;10216;42.658;23.248;2022-10-16T08:58:21;11.60;;;7.73;;
20110;SDS011;10216;42.658;23.248;2022-10-16T09:00:54;8.47;;;7.10;;
20110;SDS011;10216;42.658;23.248;2022-10-16T09:03:29;13.73;;;8.80;;
20110;SDS011;10216;42.658;23.248;2022-10-16T09:12:15;8.27;;;7.23;;
20110;SDS011;10216;42.658;23.248;2022-10-16T09:16:54;56.37;;;36.53;;
20110;SDS011;10216;42.658;23.248;2022-10-16T09:19:37;31.27;;;19.77;;
20110;SDS011;10216;42.658;23.248;2022-10-16T09:22:10;10.27;;;6.30;;
20110;SDS011;10216;42.658;23.248;2022-10-16T09:24:41;23.37;;;14.20;;
20110;SDS011;10216;42.658;23.248;2022-10-16T09:27:09;13.73;;;10.30;;
20110;SDS011;10216;42.658;23.248;2022-10-16T09:29:39;6.83;;;4.90;;
20110;SDS011;10216;42.658;23.248;2022-10-16T09:32:18;7.70;;;4.20;;
20110;SDS011;10216;42.658;23.248;2022-10-16T09:34:47;5.63;;;4.13;;
20110;SDS011;10216;42.658;23.248;2022-10-16T09:37:16;4.07;;;3.67;;
20110;SDS011;10216;42.658;23.248;2022-10-16T09:39:48;5.23;;;3.40;;
20110;SDS011;10216;42.658;23.248;2022-10-16T09:42:28;5.67;;;4.83;;
20110;SDS011;10216;42.658;23.248;2022-10-16T09:44:57;17.03;;;12.90;;
20110;SDS011;10216;42.658;23.248;2022-10-16T09:47:23;7.53;;;4.80;;
20110;SDS011;10216;42.658;23.248;2022-10-16T09:49:54;5.57;;;3.97;;
20110;SDS011;10216;42.658;23.248;2022-10-16T09:52:23;5.47;;;4.83;;
20110;SDS011;10216;42.658;23.248;2022-10-16T09:54:56;5.43;;;4.10;;
20110;SDS011;10216;42.658;23.248;2022-10-16T09:57:52;6.60;;;4.60;;
20110;SDS011;10216;42.658;23.248;2022-10-16T10:00:18;10.07;;;5.30;;
20110;SDS011;10216;42.658;23.248;2022-10-16T10:02:45;8.00;;;3.90;;
20110;SDS011;10216;42.658;23.248;2022-10-16T10:05:27;5.13;;;3.83;;
20110;SDS011;10216;42.658;23.248;2022-10-16T10:07:55;7.23;;;3.70;;
20110;SDS011;10216;42.658;23.248;2022-10-16T10:10:25;4.10;;;3.50;;
20110;SDS011;10216;42.658;23.248;2022-10-16T10:12:53;6.77;;;3.90;;
20110;SDS011;10216;42.658;23.248;2022-10-16T10:15:19;4.63;;;4.00;;
20110;SDS011;10216;42.658;23.248;2022-10-16T10:17:53;4.33;;;3.63;;
20110;SDS011;10216;42.658;23.248;2022-10-16T10:22:48;5.72;;;4.60;;
20110;SDS011;10216;42.658;23.248;2022-10-16T10:40:40;4.18;;;2.88;;
20110;SDS011;10216;42.658;23.248;2022-10-16T10:43:50;8.07;;;5.78;;
20110;SDS011;10216;42.658;23.248;2022-10-16T10:46:18;6.63;;;4.90;;
20110;SDS011;10216;42.658;23.248;2022-10-16T11:00:09;4.10;;;2.60;;
20110;SDS011;10216;42.658;23.248;2022-10-16T11:03:07;3.05;;;2.38;;
20110;SDS011;10216;42.658;23.248;2022-10-16T11:08:10;5.80;;;3.17;;
20110;SDS011;10216;42.658;23.248;2022-10-16T11:13:23;3.97;;;3.10;;
20110;SDS011;10216;42.658;23.248;2022-10-16T11:15:57;3.13;;;2.80;;
20110;SDS011;10216;42.658;23.248;2022-10-16T11:18:59;2.80;;;2.40;;
20110;SDS011;10216;42.658;23.248;2022-10-16T11:21:21;3.50;;;2.38;;
20110;SDS011;10216;42.658;23.248;2022-10-16T11:23:53;4.70;;;2.58;;
20110;SDS011;10216;42.658;23.248;2022-10-16T11:26:27;2.97;;;2.47;;
20110;SDS011;10216;42.658;23.248;2022-10-16T11:28:57;2.83;;;2.53;;
20110;SDS011;10216;42.658;23.248;2022-10-16T11:31:29;2.97;;;2.50;;
20110;SDS011;10216;42.658;23.248;2022-10-16T11:34:28;4.15;;;2.42;;
20110;SDS011;10216;42.658;23.248;2022-10-16T11:36:59;2.70;;;2.50;;
20110;SDS011;10216;42.658;23.248;2022-10-16T11:39:33;2.25;;;2.05;;
20110;SDS011;10216;42.658;23.248;2022-10-16T11:44:33;3.28;;;2.30;;
20110;SDS011;10216;42.658;23.248;2022-10-16T11:50:02;2.33;;;1.95;;
20110;SDS011;10216;42.658;23.248;2022-10-16T11:55:41;3.20;;;2.20;;
20110;SDS011;10216;42.658;23.248;2022-10-16T11:58:13;3.45;;;2.30;;
20110;SDS011;10216;42.658;23.248;2022-10-16T12:00:56;2.40;;;1.63;;
20110;SDS011;10216;42.658;23.248;2022-10-16T12:08:40;2.25;;;1.67;;
20110;SDS011;10216;42.658;23.248;2022-10-16T12:16:53;2.97;;;2.40;;
20110;SDS011;10216;42.658;23.248;2022-10-16T12:19:19;2.63;;;2.00;;
20110;SDS011;10216;42.658;23.248;2022-10-16T12:21:45;2.00;;;1.80;;
20110;SDS011;10216;42.658;23.248;2022-10-16T12:24:21;1.80;;;1.70;;
20110;SDS011;10216;42.658;23.248;2022-10-16T12:26:57;1.95;;;1.77;;
20110;SDS011;10216;42.658;23.248;2022-10-16T12:31:57;2.17;;;1.80;;
20110;SDS011;10216;42.658;23.248;2022-10-16T12:34:25;2.30;;;2.10;;
20110;SDS011;10216;42.658;23.248;2022-10-16T12:36:51;5.40;;;2.30;;
20110;SDS011;10216;42.658;23.248;2022-10-16T12:39:22;3.38;;;2.80;;
20110;SDS011;10216;42.658;23.248;2022-10-16T12:44:50;2.63;;;2.33;;
20110;SDS011;10216;42.658;23.248;2022-10-16T12:49:57;3.95;;;1.90;;
20110;SDS011;10216;42.658;23.248;2022-10-16T12:54:59;2.00;;;1.80;;
20110;SDS011;10216;42.658;23.248;2022-10-16T13:03:52;3.80;;;3.40;;
20110;SDS011;10216;42.658;23.248;2022-10-16T13:06:04;3.60;;;3.00;;
20110;SDS011;10216;42.658;23.248;2022-10-16T13:28:27;4.27;;;2.60;;
20110;SDS011;10216;42.658;23.248;2022-10-16T13:30:55;4.70;;;3.30;;
20110;SDS011;10216;42.658;23.248;2022-10-16T13:33:36;29.97;;;4.23;;
20110;SDS011;10216;42.658;23.248;2022-10-16T13:36:04;2.83;;;2.50;;
20110;SDS011;10216;42.658;23.248;2022-10-16T13:38:43;3.43;;;2.70;;
20110;SDS011;10216;42.658;23.248;2022-10-16T13:41:16;5.33;;;3.13;;
20110;SDS011;10216;42.658;23.248;2022-10-16T13:43:44;4.60;;;2.83;;
20110;SDS011;10216;42.658;23.248;2022-10-16T13:46:12;4.17;;;2.60;;
20110;SDS011;10216;42.658;23.248;2022-10-16T13:48:42;3.03;;;2.50;;
20110;SDS011;10216;42.658;23.248;2022-10-16T13:53:38;4.77;;;2.47;;
20110;SDS011;10216;42.658;23.248;2022-10-16T13:56:04;4.07;;;2.70;;
20110;SDS011;10216;42.658;23.248;2022-10-16T13:58:32;4.97;;;2.50;;
20110;SDS011;10216;42.658;23.248;2022-10-16T14:00:58;5.43;;;2.23;;
20110;SDS011;10216;42.658;23.248;2022-10-16T14:03:26;4.33;;;2.20;;
20110;SDS011;10216;42.658;23.248;2022-10-16T14:05:54;3.00;;;2.20;;
20110;SDS011;10216;42.658;23.248;2022-10-16T14:08:22;3.00;;;2.30;;
20110;SDS011;10216;42.658;23.248;2022-10-16T14:10:50;6.87;;;2.47;;
20110;SDS011;10216;42.658;23.248;2022-10-16T14:13:19;3.80;;;2.53;;
20110;SDS011;10216;42.658;23.248;2022-10-16T14:15:50;4.43;;;2.70;;
20110;SDS011;10216;42.658;23.248;2022-10-16T14:18:20;3.37;;;2.90;;
20110;SDS011;10216;42.658;23.248;2022-10-16T14:20:48;6.20;;;2.83;;
20110;SDS011;10216;42.658;23.248;2022-10-16T14:23:30;5.00;;;3.00;;
20110;SDS011;10216;42.658;23.248;2022-10-16T14:26:40;5.50;;;2.93;;
20110;SDS011;10216;42.658;23.248;2022-10-16T14:29:09;57.13;;;6.40;;
20110;SDS011;10216;42.658;23.248;2022-10-16T14:31:38;3.40;;;2.93;;
20110;SDS011;10216;42.658;23.248;2022-10-16T14:34:22;5.43;;;3.10;;
20110;SDS011;10216;42.658;23.248;2022-10-16T14:36:49;5.60;;;2.87;;
20110;SDS011;10216;42.658;23.248;2022-10-16T14:39:18;5.57;;;3.37;;
20110;SDS011;10216;42.658;23.248;2022-10-16T14:41:46;5.13;;;3.40;;
20110;SDS011;10216;42.658;23.248;2022-10-16T14:44:14;6.60;;;3.07;;
20110;SDS011;10216;42.658;23.248;2022-10-16T14:46:42;4.67;;;3.20;;
20110;SDS011;10216;42.658;23.248;2022-10-16T14:51:34;5.40;;;2.90;;
20110;SDS011;10216;42.658;23.248;2022-10-16T14:54:00;6.23;;;2.97;;
20110;SDS011;10216;42.658;23.248;2022-10-16T14:56:31;3.30;;;2.23;;
20110;SDS011;10216;42.658;23.248;2022-10-16T14:59:07;6.07;;;2.67;;
20110;SDS011;10216;42.658;23.248;2022-10-16T15:01:42;3.70;;;3.00;;
20110;SDS011;10216;42.658;23.248;2022-10-16T15:04:09;6.80;;;3.00;;
20110;SDS011;10216;42.658;23.248;2022-10-16T15:06:37;3.73;;;3.23;;
20110;SDS011;10216;42.658;23.248;2022-10-16T15:09:02;6.43;;;3.17;;
20110;SDS011;10216;42.658;23.248;2022-10-16T15:11:28;4.47;;;3.13;;
20110;SDS011;10216;42.658;23.248;2022-10-16T15:13:53;4.60;;;3.17;;
20110;SDS011;10216;42.658;23.248;2022-10-16T15:16:19;13.37;;;3.33;;
20110;SDS011;10216;42.658;23.248;2022-10-16T15:18:44;4.50;;;3.10;;
20110;SDS011;10216;42.658;23.248;2022-10-16T15:21:24;5.47;;;3.70;;
20110;SDS011;10216;42.658;23.248;2022-10-16T15:23:54;7.03;;;4.20;;
20110;SDS011;10216;42.658;23.248;2022-10-16T15:26:19;6.37;;;5.37;;
20110;SDS011;10216;42.658;23.248;2022-10-16T15:28:45;6.87;;;5.47;;
20110;SDS011;10216;42.658;23.248;2022-10-16T15:31:10;5.07;;;4.20;;
20110;SDS011;10216;42.658;23.248;2022-10-16T15:33:35;7.00;;;3.73;;
20110;SDS011;10216;42.658;23.248;2022-10-16T15:36:03;6.10;;;3.70;;
20110;SDS011;10216;42.658;23.248;2022-10-16T15:38:29;6.03;;;3.40;;
20110;SDS011;10216;42.658;23.248;2022-10-16T15:40:55;4.03;;;3.50;;
20110;SDS011;10216;42.658;23.248;2022-10-16T15:43:20;8.07;;;3.70;;
20110;SDS011;10216;42.658;23.248;2022-10-16T15:46:11;4.80;;;3.53;;
20110;SDS011;10216;42.658;23.248;2022-10-16T15:48:34;6.23;;;3.60;;
20110;SDS011;10216;42.658;23.248;2022-10-16T15:51:00;6.93;;;4.10;;
20110;SDS011;10216;42.658;23.248;2022-10-16T15:53:30;5.50;;;3.47;;
20110;SDS011;10216;42.658;23.248;2022-10-16T15:55:58;5.87;;;3.80;;
20110;SDS011;10216;42.658;23.248;2022-10-16T15:58:27;4.10;;;3.50;;
20110;SDS011;10216;42.658;23.248;2022-10-16T16:00:56;8.47;;;3.00;;
20110;SDS011;10216;42.658;23.248;2022-10-16T16:03:23;4.50;;;3.40;;
20110;SDS011;10216;42.658;23.248;2022-10-16T16:05:48;4.40;;;3.40;;
20110;SDS011;10216;42.658;23.248;2022-10-16T16:08:14;4.73;;;3.40;;
20110;SDS011;10216;42.658;23.248;2022-10-16T16:10:42;5.80;;;3.73;;
20110;SDS011;10216;42.658;23.248;2022-10-16T16:13:07;6.50;;;3.50;;
20110;SDS011;10216;42.658;23.248;2022-10-16T16:15:33;4.03;;;3.40;;
20110;SDS011;10216;42.658;23.248;2022-10-16T16:17:58;6.97;;;3.33;;
20110;SDS011;10216;42.658;23.248;2022-10-16T16:20:23;18.73;;;4.17;;
20110;SDS011;10216;42.658;23.248;2022-10-16T16:22:49;9.37;;;6.23;;
20110;SDS011;10216;42.658;23.248;2022-10-16T16:25:16;13.73;;;8.60;;
20110;SDS011;10216;42.658;23.248;2022-10-16T16:27:42;11.97;;;9.40;;
20110;SDS011;10216;42.658;23.248;2022-10-16T16:30:09;11.33;;;7.87;;
20110;SDS011;10216;42.658;23.248;2022-10-16T16:32:36;8.43;;;5.77;;